Parsival — V2MS — position and weather

sailwx.info

Track history (hours):
 
Tides and Currents Weather Stations Pressure Air Temp Water Temp Dewpoint Dewpoint Depression Visibility Wind Speed Wind Dir Waves Ship Positions

Parsival

Last reported at 2014-Sep-13 06:29 UTC. Time now 2014-Sep-16 00:55 UTC.
Position N 43°51' W 005°45'.

; draft 4.8 m.

Type: Cargo ship. MMSI: 304010881.

Date/timePositionNaut miles runAvg speedWind from/ knotsBaromVisibWave heightAir tempDewpointWater temp
2014-Sep-13 06:29N 43°51' W 005°45'13 9.4
2014-Sep-13 05:06N 43°50' W 005°27'5 8.7
2014-Sep-13 04:30N 43°50' W 005°20'99 9.0
2014-Sep-12 17:30N 43°45' W 003°02'9 9.2
2014-Sep-12 16:32N 43°43' W 002°50'9 9.4
2014-Sep-12 15:33N 43°39' W 002°38'9 9.4
2014-Sep-12 14:33N 43°34' W 002°27'9 9.4
2014-Sep-12 13:33N 43°29' W 002°17'19 1.0
2014-Sep-11 19:30N 43°19' W 001°55'4 0.1
2014-Sep-10 12:31N 43°23' W 001°55'9 8.2
2014-Sep-10 11:28N 43°28' W 001°45'7 8.0
2014-Sep-10 10:33N 43°32' W 001°37'2 2.2
2014-Sep-10 09:31N 43°33' W 001°34'0 0.0
2014-Sep-10 08:31N 43°33' W 001°34'0 0.0
2014-Sep-10 07:19N 43°33' W 001°34'0 0.0
2014-Sep-10 06:31N 43°33' W 001°34'0 0.0
2014-Sep-10 05:31N 43°33' W 001°34'0 0.0
2014-Sep-10 04:31N 43°33' W 001°34'0 0.1
2014-Sep-10 03:31N 43°33' W 001°34'0 0.0
2014-Sep-10 02:31N 43°33' W 001°34'0 0.0
2014-Sep-10 01:31N 43°33' W 001°34'0 0.0
2014-Sep-10 00:31N 43°33' W 001°34'0 0.0
2014-Sep-09 23:28N 43°33' W 001°34'0 0.0
2014-Sep-09 22:31N 43°33' W 001°34'0 0.0
2014-Sep-09 21:22N 43°33' W 001°34'0 0.1
2014-Sep-09 20:25N 43°33' W 001°34'0 0.0
2014-Sep-09 19:31N 43°33' W 001°34'0 0.0
2014-Sep-09 18:31N 43°33' W 001°34'0 0.0
2014-Sep-09 17:28N 43°33' W 001°34'0 0.0
2014-Sep-09 16:31N 43°33' W 001°34'0 0.0
2014-Sep-09 15:31N 43°33' W 001°34'2 1.9
2014-Sep-09 14:33N 43°32' W 001°32'1 0.4
2014-Sep-09 11:09N 43°32' W 001°30'0 0.0
2014-Sep-09 08:27N 43°32' W 001°30'0 0.0
2014-Sep-09 04:20N 43°32' W 001°30'5 6.6
2014-Sep-09 03:33N 43°34' W 001°37'35 8.5
2014-Sep-08 23:23N 44°03' W 002°04'39 7.5
2014-Sep-08 18:12N 44°37' W 002°31'  
2014-Sep-06 08:04N 50°34' E 000°13'9 9.0
2014-Sep-06 07:05N 50°37' E 000°26'4 8.5
2014-Sep-06 06:33N 50°38' E 000°33'9 8.6
2014-Sep-06 05:33N 50°43' E 000°44'10 9.5
2014-Sep-06 04:33N 50°48' E 000°56'2211.0
2014-Sep-06 02:33N 51°02' E 001°24'1110.8
2014-Sep-06 01:33N 51°09' E 001°37'9 9.4
2014-Sep-06 00:33N 51°16' E 001°48'9 8.6
2014-Sep-05 23:32N 51°23' E 001°55'8 8.2
2014-Sep-05 22:31N 51°30' E 002°02'9 8.2
2014-Sep-05 21:28N 51°36' E 002°12'8 8.5
2014-Sep-05 20:31N 51°42' E 002°21'48 9.4
2014-Sep-05 15:26N 52°03' E 003°30'12 9.6
2014-Sep-05 14:11N 52°02' E 003°50'5 8.4
2014-Sep-05 13:33N 52°01' E 003°58'1010.4
2014-Sep-05 12:33N 51°56' E 004°13'9 8.6
2014-Sep-05 11:33N 51°51' E 004°23'8 7.9
2014-Sep-05 10:33N 51°48' E 004°36'7 7.0
2014-Sep-05 09:33N 51°41' E 004°36'0 0.0
2014-Sep-05 06:22N 51°41' E 004°36'0 0.0
2014-Sep-05 04:16N 51°41' E 004°36'0 0.0
2014-Sep-05 03:22N 51°41' E 004°36'0 0.0
2014-Sep-05 02:31N 51°41' E 004°36'0 0.0
2014-Sep-05 01:13N 51°41' E 004°36'0 0.0
2014-Sep-04 23:19N 51°41' E 004°36'0 0.0
2014-Sep-04 22:25N 51°41' E 004°36'0 0.0
2014-Sep-04 21:28N 51°41' E 004°36'1 0.2
2014-Sep-04 17:33N 51°42' E 004°36'7 6.6
2014-Sep-04 16:33N 51°49' E 004°34'7 7.0
2014-Sep-04 15:33N 51°51' E 004°23'6 6.1
2014-Sep-04 14:33N 51°54' E 004°16'7 6.6
2014-Sep-04 13:33N 51°58' E 004°07'8 7.8
2014-Sep-04 12:33N 51°60' E 003°55'19 9.4
2014-Sep-04 10:32N 51°55' E 003°25'12 9.6
2014-Sep-04 09:14N 51°44' E 003°15'710.3
2014-Sep-04 08:32N 51°38' E 003°22'1010.2
2014-Sep-04 07:33N 51°29' E 003°30'8 7.8
2014-Sep-04 06:34N 51°26' E 003°41'8 7.9
2014-Sep-04 05:33N 51°22' E 003°52'7 6.9
2014-Sep-04 04:34N 51°26' E 004°02'7 7.3
2014-Sep-04 03:34N 51°23' E 004°13'4 3.7
2014-Sep-04 02:33N 51°21' E 004°17'1 0.6
2014-Sep-04 01:33N 51°21' E 004°18'3 2.6
2014-Sep-04 00:33N 51°18' E 004°20'4 4.2
2014-Sep-03 23:33N 51°15' E 004°24'0 0.0
2014-Sep-03 22:33N 51°15' E 004°24'0 0.0
2014-Sep-03 21:33N 51°15' E 004°24'0 0.0
2014-Sep-03 20:33N 51°15' E 004°24'0 0.0
2014-Sep-03 19:33N 51°15' E 004°24'0 0.0
2014-Sep-03 18:33N 51°15' E 004°24'0 0.0
2014-Sep-03 17:33N 51°15' E 004°24'0 0.0
2014-Sep-03 16:33N 51°15' E 004°24'0 0.0
2014-Sep-03 15:33N 51°15' E 004°24'0 0.0
2014-Sep-03 14:33N 51°15' E 004°24'0 0.0
2014-Sep-03 13:33N 51°15' E 004°24'0 0.0
2014-Sep-03 12:33N 51°15' E 004°24'0 0.0
2014-Sep-03 11:33N 51°15' E 004°24'0 0.0
2014-Sep-03 10:33N 51°15' E 004°24'5 4.9
2014-Sep-03 09:33N 51°19' E 004°19'2 2.2
2014-Sep-03 08:33N 51°21' E 004°17'0 0.2
2014-Sep-03 07:33N 51°21' E 004°17'6 5.9
2014-Sep-03 06:33N 51°22' E 004°08'  
Track history (hours):
 
Tides and Currents Weather Stations Pressure Air Temp Water Temp Dewpoint Dewpoint Depression Visibility Wind Speed Wind Dir Waves Ship Positions

Parsival

Last reported at 2014-Sep-13 06:29 UTC. Time now 2014-Sep-16 00:55 UTC.
Position N 43°51' W 005°45'.

; draft 4.8 m.

Type: Cargo ship. MMSI: 304010881.

Date/timePositionNaut miles runAvg speedWind from/ knotsBaromVisibWave heightAir tempDewpointWater temp
2014-Sep-13 06:29N 43°51' W 005°45'13 9.4
2014-Sep-13 05:06N 43°50' W 005°27'5 8.7
2014-Sep-13 04:30N 43°50' W 005°20'99 9.0
2014-Sep-12 17:30N 43°45' W 003°02'9 9.2
2014-Sep-12 16:32N 43°43' W 002°50'9 9.4
2014-Sep-12 15:33N 43°39' W 002°38'9 9.4
2014-Sep-12 14:33N 43°34' W 002°27'9 9.4
2014-Sep-12 13:33N 43°29' W 002°17'19 1.0
2014-Sep-11 19:30N 43°19' W 001°55'4 0.1
2014-Sep-10 12:31N 43°23' W 001°55'9 8.2
2014-Sep-10 11:28N 43°28' W 001°45'7 8.0
2014-Sep-10 10:33N 43°32' W 001°37'2 2.2
2014-Sep-10 09:31N 43°33' W 001°34'0 0.0
2014-Sep-10 08:31N 43°33' W 001°34'0 0.0
2014-Sep-10 07:19N 43°33' W 001°34'0 0.0
2014-Sep-10 06:31N 43°33' W 001°34'0 0.0
2014-Sep-10 05:31N 43°33' W 001°34'0 0.0
2014-Sep-10 04:31N 43°33' W 001°34'0 0.1
2014-Sep-10 03:31N 43°33' W 001°34'0 0.0
2014-Sep-10 02:31N 43°33' W 001°34'0 0.0
2014-Sep-10 01:31N 43°33' W 001°34'0 0.0
2014-Sep-10 00:31N 43°33' W 001°34'0 0.0
2014-Sep-09 23:28N 43°33' W 001°34'0 0.0
2014-Sep-09 22:31N 43°33' W 001°34'0 0.0
2014-Sep-09 21:22N 43°33' W 001°34'0 0.1
2014-Sep-09 20:25N 43°33' W 001°34'0 0.0
2014-Sep-09 19:31N 43°33' W 001°34'0 0.0
2014-Sep-09 18:31N 43°33' W 001°34'0 0.0
2014-Sep-09 17:28N 43°33' W 001°34'0 0.0
2014-Sep-09 16:31N 43°33' W 001°34'0 0.0
2014-Sep-09 15:31N 43°33' W 001°34'2 1.9
2014-Sep-09 14:33N 43°32' W 001°32'1 0.4
2014-Sep-09 11:09N 43°32' W 001°30'0 0.0
2014-Sep-09 08:27N 43°32' W 001°30'0 0.0
2014-Sep-09 04:20N 43°32' W 001°30'5 6.6
2014-Sep-09 03:33N 43°34' W 001°37'35 8.5
2014-Sep-08 23:23N 44°03' W 002°04'39 7.5
2014-Sep-08 18:12N 44°37' W 002°31'  
2014-Sep-06 08:04N 50°34' E 000°13'9 9.0
2014-Sep-06 07:05N 50°37' E 000°26'4 8.5
2014-Sep-06 06:33N 50°38' E 000°33'9 8.6
2014-Sep-06 05:33N 50°43' E 000°44'10 9.5
2014-Sep-06 04:33N 50°48' E 000°56'2211.0
2014-Sep-06 02:33N 51°02' E 001°24'1110.8
2014-Sep-06 01:33N 51°09' E 001°37'9 9.4
2014-Sep-06 00:33N 51°16' E 001°48'9 8.6
2014-Sep-05 23:32N 51°23' E 001°55'8 8.2
2014-Sep-05 22:31N 51°30' E 002°02'9 8.2
2014-Sep-05 21:28N 51°36' E 002°12'8 8.5
2014-Sep-05 20:31N 51°42' E 002°21'48 9.4
2014-Sep-05 15:26N 52°03' E 003°30'12 9.6
2014-Sep-05 14:11N 52°02' E 003°50'5 8.4
2014-Sep-05 13:33N 52°01' E 003°58'1010.4
2014-Sep-05 12:33N 51°56' E 004°13'9 8.6
2014-Sep-05 11:33N 51°51' E 004°23'8 7.9
2014-Sep-05 10:33N 51°48' E 004°36'7 7.0
2014-Sep-05 09:33N 51°41' E 004°36'0 0.0
2014-Sep-05 06:22N 51°41' E 004°36'0 0.0
2014-Sep-05 04:16N 51°41' E 004°36'0 0.0
2014-Sep-05 03:22N 51°41' E 004°36'0 0.0
2014-Sep-05 02:31N 51°41' E 004°36'0 0.0
2014-Sep-05 01:13N 51°41' E 004°36'0 0.0
2014-Sep-04 23:19N 51°41' E 004°36'0 0.0
2014-Sep-04 22:25N 51°41' E 004°36'0 0.0
2014-Sep-04 21:28N 51°41' E 004°36'1 0.2
2014-Sep-04 17:33N 51°42' E 004°36'7 6.6
2014-Sep-04 16:33N 51°49' E 004°34'7 7.0
2014-Sep-04 15:33N 51°51' E 004°23'6 6.1
2014-Sep-04 14:33N 51°54' E 004°16'7 6.6
2014-Sep-04 13:33N 51°58' E 004°07'8 7.8
2014-Sep-04 12:33N 51°60' E 003°55'19 9.4
2014-Sep-04 10:32N 51°55' E 003°25'12 9.6
2014-Sep-04 09:14N 51°44' E 003°15'710.3
2014-Sep-04 08:32N 51°38' E 003°22'1010.2
2014-Sep-04 07:33N 51°29' E 003°30'8 7.8
2014-Sep-04 06:34N 51°26' E 003°41'8 7.9
2014-Sep-04 05:33N 51°22' E 003°52'7 6.9
2014-Sep-04 04:34N 51°26' E 004°02'7 7.3
2014-Sep-04 03:34N 51°23' E 004°13'4 3.7
2014-Sep-04 02:33N 51°21' E 004°17'1 0.6
2014-Sep-04 01:33N 51°21' E 004°18'3 2.6
2014-Sep-04 00:33N 51°18' E 004°20'4 4.2
2014-Sep-03 23:33N 51°15' E 004°24'0 0.0
2014-Sep-03 22:33N 51°15' E 004°24'0 0.0
2014-Sep-03 21:33N 51°15' E 004°24'0 0.0
2014-Sep-03 20:33N 51°15' E 004°24'0 0.0
2014-Sep-03 19:33N 51°15' E 004°24'0 0.0
2014-Sep-03 18:33N 51°15' E 004°24'0 0.0
2014-Sep-03 17:33N 51°15' E 004°24'0 0.0
2014-Sep-03 16:33N 51°15' E 004°24'0 0.0
2014-Sep-03 15:33N 51°15' E 004°24'0 0.0
2014-Sep-03 14:33N 51°15' E 004°24'0 0.0
2014-Sep-03 13:33N 51°15' E 004°24'0 0.0
2014-Sep-03 12:33N 51°15' E 004°24'0 0.0
2014-Sep-03 11:33N 51°15' E 004°24'0 0.0
2014-Sep-03 10:33N 51°15' E 004°24'5 4.9
2014-Sep-03 09:33N 51°19' E 004°19'2 2.2
2014-Sep-03 08:33N 51°21' E 004°17'0 0.2
2014-Sep-03 07:33N 51°21' E 004°17'6 5.9
2014-Sep-03 06:33N 51°22' E 004°08'  

Dump ship's entire track history